sensor_id;sensor_type;location;lat;lon;timestamp;temperature;humidity
11666;DHT22;5889;51.350;6.708;2023-04-15T00:00:18;9.00;98.20
11666;DHT22;5889;51.350;6.708;2023-04-15T00:02:45;9.00;98.20
11666;DHT22;5889;51.350;6.708;2023-04-15T00:05:14;8.90;98.20
11666;DHT22;5889;51.350;6.708;2023-04-15T00:07:42;8.90;98.30
11666;DHT22;5889;51.350;6.708;2023-04-15T00:10:11;8.90;98.40
11666;DHT22;5889;51.350;6.708;2023-04-15T00:12:39;8.90;98.40
11666;DHT22;5889;51.350;6.708;2023-04-15T00:15:08;8.80;98.40
11666;DHT22;5889;51.350;6.708;2023-04-15T00:17:35;8.80;98.50
11666;DHT22;5889;51.350;6.708;2023-04-15T00:20:04;8.80;98.50
11666;DHT22;5889;51.350;6.708;2023-04-15T00:22:32;8.70;98.50
11666;DHT22;5889;51.350;6.708;2023-04-15T00:24:59;8.70;98.60
11666;DHT22;5889;51.350;6.708;2023-04-15T00:27:26;8.70;98.60
11666;DHT22;5889;51.350;6.708;2023-04-15T00:29:54;8.70;99.00
11666;DHT22;5889;51.350;6.708;2023-04-15T00:32:21;8.60;98.70
11666;DHT22;5889;51.350;6.708;2023-04-15T00:34:49;8.60;98.80
11666;DHT22;5889;51.350;6.708;2023-04-15T00:37:17;8.50;98.80
11666;DHT22;5889;51.350;6.708;2023-04-15T00:39:45;8.50;98.80
11666;DHT22;5889;51.350;6.708;2023-04-15T00:42:12;8.50;98.90
11666;DHT22;5889;51.350;6.708;2023-04-15T00:44:39;8.50;99.00
11666;DHT22;5889;51.350;6.708;2023-04-15T00:47:07;8.50;99.10
11666;DHT22;5889;51.350;6.708;2023-04-15T00:49:34;8.40;99.20
11666;DHT22;5889;51.350;6.708;2023-04-15T00:52:01;8.40;99.20
11666;DHT22;5889;51.350;6.708;2023-04-15T00:54:28;8.40;99.20
11666;DHT22;5889;51.350;6.708;2023-04-15T00:56:57;8.40;99.30
11666;DHT22;5889;51.350;6.708;2023-04-15T00:59:24;8.30;99.30
11666;DHT22;5889;51.350;6.708;2023-04-15T01:01:52;8.30;99.40
11666;DHT22;5889;51.350;6.708;2023-04-15T01:04:19;8.30;99.50
11666;DHT22;5889;51.350;6.708;2023-04-15T01:06:46;8.30;99.70
11666;DHT22;5889;51.350;6.708;2023-04-15T01:09:16;8.20;99.70
11666;DHT22;5889;51.350;6.708;2023-04-15T01:11:43;8.20;99.80
11666;DHT22;5889;51.350;6.708;2023-04-15T01:14:12;8.20;99.90
11666;DHT22;5889;51.350;6.708;2023-04-15T01:16:39;8.20;99.90
11666;DHT22;5889;51.350;6.708;2023-04-15T01:19:07;8.10;99.90
11666;DHT22;5889;51.350;6.708;2023-04-15T01:21:36;8.10;99.90
11666;DHT22;5889;51.350;6.708;2023-04-15T01:24:08;8.10;99.90
11666;DHT22;5889;51.350;6.708;2023-04-15T01:26:36;8.10;99.90
11666;DHT22;5889;51.350;6.708;2023-04-15T01:29:03;8.10;99.90
11666;DHT22;5889;51.350;6.708;2023-04-15T01:31:31;8.10;99.90
11666;DHT22;5889;51.350;6.708;2023-04-15T01:33:58;8.10;99.90
11666;DHT22;5889;51.350;6.708;2023-04-15T01:36:25;8.00;99.90
11666;DHT22;5889;51.350;6.708;2023-04-15T01:38:52;8.00;99.90
11666;DHT22;5889;51.350;6.708;2023-04-15T01:41:21;7.90;99.90
11666;DHT22;5889;51.350;6.708;2023-04-15T01:43:52;7.90;99.90
11666;DHT22;5889;51.350;6.708;2023-04-15T01:46:19;7.90;99.90
11666;DHT22;5889;51.350;6.708;2023-04-15T01:48:46;7.90;99.90
11666;DHT22;5889;51.350;6.708;2023-04-15T01:51:13;7.90;99.90
11666;DHT22;5889;51.350;6.708;2023-04-15T01:53:41;7.90;99.90
11666;DHT22;5889;51.350;6.708;2023-04-15T01:56:08;7.80;99.90
11666;DHT22;5889;51.350;6.708;2023-04-15T01:58:35;7.80;99.90
11666;DHT22;5889;51.350;6.708;2023-04-15T02:01:03;7.80;99.90
11666;DHT22;5889;51.350;6.708;2023-04-15T02:03:33;7.80;99.90
11666;DHT22;5889;51.350;6.708;2023-04-15T02:06:03;7.80;99.90
11666;DHT22;5889;51.350;6.708;2023-04-15T02:08:32;7.80;99.90
11666;DHT22;5889;51.350;6.708;2023-04-15T02:11:01;7.70;99.90
11666;DHT22;5889;51.350;6.708;2023-04-15T02:13:34;7.70;99.90
11666;DHT22;5889;51.350;6.708;2023-04-15T02:16:14;7.70;99.90
11666;DHT22;5889;51.350;6.708;2023-04-15T02:18:52;7.70;99.90
11666;DHT22;5889;51.350;6.708;2023-04-15T02:21:24;7.70;99.90
11666;DHT22;5889;51.350;6.708;2023-04-15T02:23:51;7.70;99.90
11666;DHT22;5889;51.350;6.708;2023-04-15T02:26:19;7.60;99.90
11666;DHT22;5889;51.350;6.708;2023-04-15T02:28:47;7.60;99.90
11666;DHT22;5889;51.350;6.708;2023-04-15T02:31:17;7.60;99.90
11666;DHT22;5889;51.350;6.708;2023-04-15T02:33:44;7.60;99.90
11666;DHT22;5889;51.350;6.708;2023-04-15T02:36:11;7.60;99.90
11666;DHT22;5889;51.350;6.708;2023-04-15T02:38:39;7.50;99.90
11666;DHT22;5889;51.350;6.708;2023-04-15T02:41:08;7.50;99.90
11666;DHT22;5889;51.350;6.708;2023-04-15T02:43:35;7.40;99.90
11666;DHT22;5889;51.350;6.708;2023-04-15T02:46:04;7.40;99.90
11666;DHT22;5889;51.350;6.708;2023-04-15T02:48:33;7.30;99.90
11666;DHT22;5889;51.350;6.708;2023-04-15T02:51:13;7.30;99.90
11666;DHT22;5889;51.350;6.708;2023-04-15T02:53:40;7.20;99.90
11666;DHT22;5889;51.350;6.708;2023-04-15T02:56:07;7.20;99.90
11666;DHT22;5889;51.350;6.708;2023-04-15T02:58:34;7.20;99.90
11666;DHT22;5889;51.350;6.708;2023-04-15T03:01:01;7.20;99.90
11666;DHT22;5889;51.350;6.708;2023-04-15T03:03:28;7.10;99.90
11666;DHT22;5889;51.350;6.708;2023-04-15T03:05:56;7.10;99.90
11666;DHT22;5889;51.350;6.708;2023-04-15T03:08:23;7.10;99.90
11666;DHT22;5889;51.350;6.708;2023-04-15T03:10:50;7.10;99.90
11666;DHT22;5889;51.350;6.708;2023-04-15T03:13:18;7.00;99.90
11666;DHT22;5889;51.350;6.708;2023-04-15T03:15:45;7.00;99.90
11666;DHT22;5889;51.350;6.708;2023-04-15T03:18:13;6.90;99.90
11666;DHT22;5889;51.350;6.708;2023-04-15T03:20:40;6.80;99.90
11666;DHT22;5889;51.350;6.708;2023-04-15T03:23:08;6.70;99.90
11666;DHT22;5889;51.350;6.708;2023-04-15T03:25:35;6.60;99.90
11666;DHT22;5889;51.350;6.708;2023-04-15T03:28:02;6.60;99.90
11666;DHT22;5889;51.350;6.708;2023-04-15T03:30:30;6.70;99.90
11666;DHT22;5889;51.350;6.708;2023-04-15T03:32:57;6.70;99.90
11666;DHT22;5889;51.350;6.708;2023-04-15T03:35:24;6.70;99.90
11666;DHT22;5889;51.350;6.708;2023-04-15T03:37:51;6.80;99.90
11666;DHT22;5889;51.350;6.708;2023-04-15T03:40:20;6.70;99.90
11666;DHT22;5889;51.350;6.708;2023-04-15T03:42:47;6.80;99.90
11666;DHT22;5889;51.350;6.708;2023-04-15T03:45:14;6.80;99.90
11666;DHT22;5889;51.350;6.708;2023-04-15T03:47:41;6.90;99.90
11666;DHT22;5889;51.350;6.708;2023-04-15T03:50:09;6.90;99.90
11666;DHT22;5889;51.350;6.708;2023-04-15T03:52:36;6.90;99.90
11666;DHT22;5889;51.350;6.708;2023-04-15T03:55:03;6.90;99.90
11666;DHT22;5889;51.350;6.708;2023-04-15T03:57:32;6.90;99.90
11666;DHT22;5889;51.350;6.708;2023-04-15T04:00:03;6.90;99.90
11666;DHT22;5889;51.350;6.708;2023-04-15T04:02:30;6.90;99.90
11666;DHT22;5889;51.350;6.708;2023-04-15T04:04:57;6.90;99.90
11666;DHT22;5889;51.350;6.708;2023-04-15T04:07:24;6.80;99.90
11666;DHT22;5889;51.350;6.708;2023-04-15T04:09:51;6.80;99.90
11666;DHT22;5889;51.350;6.708;2023-04-15T04:12:18;6.80;99.90
11666;DHT22;5889;51.350;6.708;2023-04-15T04:14:46;6.80;99.90
11666;DHT22;5889;51.350;6.708;2023-04-15T04:17:14;6.80;99.90
11666;DHT22;5889;51.350;6.708;2023-04-15T04:19:41;6.80;99.90
11666;DHT22;5889;51.350;6.708;2023-04-15T04:22:08;6.80;99.90
11666;DHT22;5889;51.350;6.708;2023-04-15T04:24:35;6.80;99.90
11666;DHT22;5889;51.350;6.708;2023-04-15T04:27:02;6.80;99.90
11666;DHT22;5889;51.350;6.708;2023-04-15T04:29:29;6.80;99.90
11666;DHT22;5889;51.350;6.708;2023-04-15T04:31:58;6.70;99.90
11666;DHT22;5889;51.350;6.708;2023-04-15T04:34:25;6.70;99.90
11666;DHT22;5889;51.350;6.708;2023-04-15T04:36:52;6.70;99.90
11666;DHT22;5889;51.350;6.708;2023-04-15T04:39:19;6.70;99.90
11666;DHT22;5889;51.350;6.708;2023-04-15T04:41:46;6.70;99.90
11666;DHT22;5889;51.350;6.708;2023-04-15T04:44:13;6.70;99.90
11666;DHT22;5889;51.350;6.708;2023-04-15T04:46:40;6.70;99.90
11666;DHT22;5889;51.350;6.708;2023-04-15T04:49:09;6.70;99.90
11666;DHT22;5889;51.350;6.708;2023-04-15T04:51:36;6.70;99.90
11666;DHT22;5889;51.350;6.708;2023-04-15T04:54:04;6.70;99.90
11666;DHT22;5889;51.350;6.708;2023-04-15T04:56:30;6.70;99.90
11666;DHT22;5889;51.350;6.708;2023-04-15T04:58:58;6.70;99.90
11666;DHT22;5889;51.350;6.708;2023-04-15T05:01:25;6.80;99.90
11666;DHT22;5889;51.350;6.708;2023-04-15T05:03:53;6.70;99.90
11666;DHT22;5889;51.350;6.708;2023-04-15T05:06:21;6.70;99.90
11666;DHT22;5889;51.350;6.708;2023-04-15T05:08:48;6.70;99.90
11666;DHT22;5889;51.350;6.708;2023-04-15T05:11:15;6.70;99.90
11666;DHT22;5889;51.350;6.708;2023-04-15T05:13:42;6.70;99.90
11666;DHT22;5889;51.350;6.708;2023-04-15T05:16:09;6.70;99.90
11666;DHT22;5889;51.350;6.708;2023-04-15T05:18:36;6.80;99.90
11666;DHT22;5889;51.350;6.708;2023-04-15T05:21:03;6.80;99.90
11666;DHT22;5889;51.350;6.708;2023-04-15T05:23:32;6.80;99.90
11666;DHT22;5889;51.350;6.708;2023-04-15T05:25:59;6.80;99.90
11666;DHT22;5889;51.350;6.708;2023-04-15T05:28:26;6.80;99.90
11666;DHT22;5889;51.350;6.708;2023-04-15T05:30:53;6.80;99.90
11666;DHT22;5889;51.350;6.708;2023-04-15T05:33:21;6.90;99.90
11666;DHT22;5889;51.350;6.708;2023-04-15T05:35:48;6.90;99.90
11666;DHT22;5889;51.350;6.708;2023-04-15T05:38:15;6.90;99.90
11666;DHT22;5889;51.350;6.708;2023-04-15T05:40:43;7.00;99.90
11666;DHT22;5889;51.350;6.708;2023-04-15T05:43:10;7.00;99.90
11666;DHT22;5889;51.350;6.708;2023-04-15T05:45:37;7.00;99.90
11666;DHT22;5889;51.350;6.708;2023-04-15T05:48:04;7.10;99.90
11666;DHT22;5889;51.350;6.708;2023-04-15T05:50:31;7.10;99.90
11666;DHT22;5889;51.350;6.708;2023-04-15T05:52:58;7.20;99.90
11666;DHT22;5889;51.350;6.708;2023-04-15T05:55:26;7.20;99.90
11666;DHT22;5889;51.350;6.708;2023-04-15T05:57:55;7.30;99.90
11666;DHT22;5889;51.350;6.708;2023-04-15T06:00:21;7.30;99.90
11666;DHT22;5889;51.350;6.708;2023-04-15T06:02:49;7.40;99.90
11666;DHT22;5889;51.350;6.708;2023-04-15T06:05:17;7.50;99.90
11666;DHT22;5889;51.350;6.708;2023-04-15T06:07:44;7.50;99.90
11666;DHT22;5889;51.350;6.708;2023-04-15T06:10:12;7.60;99.90
11666;DHT22;5889;51.350;6.708;2023-04-15T06:12:40;7.60;99.90
11666;DHT22;5889;51.350;6.708;2023-04-15T06:15:09;7.70;99.90
11666;DHT22;5889;51.350;6.708;2023-04-15T06:17:36;7.80;99.90
11666;DHT22;5889;51.350;6.708;2023-04-15T06:20:03;7.80;99.90
11666;DHT22;5889;51.350;6.708;2023-04-15T06:22:31;7.90;99.90
11666;DHT22;5889;51.350;6.708;2023-04-15T06:24:58;7.90;99.90
11666;DHT22;5889;51.350;6.708;2023-04-15T06:27:24;8.00;99.90
11666;DHT22;5889;51.350;6.708;2023-04-15T06:29:51;8.10;99.90
11666;DHT22;5889;51.350;6.708;2023-04-15T06:32:23;8.10;99.90
11666;DHT22;5889;51.350;6.708;2023-04-15T06:35:19;8.20;99.90
11666;DHT22;5889;51.350;6.708;2023-04-15T06:38:45;8.30;99.90
11666;DHT22;5889;51.350;6.708;2023-04-15T06:41:39;8.40;99.90
11666;DHT22;5889;51.350;6.708;2023-04-15T06:44:41;8.50;99.90
11666;DHT22;5889;51.350;6.708;2023-04-15T06:47:48;8.60;99.90
11666;DHT22;5889;51.350;6.708;2023-04-15T06:57:40;9.00;99.90
11666;DHT22;5889;51.350;6.708;2023-04-15T07:00:41;9.10;99.90
11666;DHT22;5889;51.350;6.708;2023-04-15T07:20:52;9.60;99.90
11666;DHT22;5889;51.350;6.708;2023-04-15T07:23:41;9.70;99.90
11666;DHT22;5889;51.350;6.708;2023-04-15T07:26:46;9.80;99.90
11666;DHT22;5889;51.350;6.708;2023-04-15T07:29:40;10.10;99.90
11666;DHT22;5889;51.350;6.708;2023-04-15T07:32:39;10.20;99.90
11666;DHT22;5889;51.350;6.708;2023-04-15T07:35:40;10.40;99.90
11666;DHT22;5889;51.350;6.708;2023-04-15T07:38:37;10.40;99.90
11666;DHT22;5889;51.350;6.708;2023-04-15T07:41:46;10.40;99.90
11666;DHT22;5889;51.350;6.708;2023-04-15T07:44:39;10.40;99.90
11666;DHT22;5889;51.350;6.708;2023-04-15T07:47:40;10.40;99.90
11666;DHT22;5889;51.350;6.708;2023-04-15T07:50:39;10.50;99.90
11666;DHT22;5889;51.350;6.708;2023-04-15T07:53:48;10.60;99.90
11666;DHT22;5889;51.350;6.708;2023-04-15T08:00:17;10.80;99.90
11666;DHT22;5889;51.350;6.708;2023-04-15T08:17:06;10.80;99.90
11666;DHT22;5889;51.350;6.708;2023-04-15T08:20:10;11.00;99.90
11666;DHT22;5889;51.350;6.708;2023-04-15T08:23:39;11.10;99.90
11666;DHT22;5889;51.350;6.708;2023-04-15T08:40:56;11.50;99.90
11666;DHT22;5889;51.350;6.708;2023-04-15T09:15:46;12.00;99.90
11666;DHT22;5889;51.350;6.708;2023-04-15T09:18:30;11.80;99.90
11666;DHT22;5889;51.350;6.708;2023-04-15T09:21:30;11.90;99.90
11666;DHT22;5889;51.350;6.708;2023-04-15T09:31:01;12.00;99.90
11666;DHT22;5889;51.350;6.708;2023-04-15T09:33:29;12.00;99.90
11666;DHT22;5889;51.350;6.708;2023-04-15T09:35:57;12.00;99.90
11666;DHT22;5889;51.350;6.708;2023-04-15T09:38:24;11.90;99.90
11666;DHT22;5889;51.350;6.708;2023-04-15T09:40:51;12.00;99.90
11666;DHT22;5889;51.350;6.708;2023-04-15T09:43:19;11.90;99.90
11666;DHT22;5889;51.350;6.708;2023-04-15T09:45:47;12.00;99.90
11666;DHT22;5889;51.350;6.708;2023-04-15T09:48:17;12.10;99.90
11666;DHT22;5889;51.350;6.708;2023-04-15T09:50:45;12.20;99.90
11666;DHT22;5889;51.350;6.708;2023-04-15T09:53:16;12.00;99.90
11666;DHT22;5889;51.350;6.708;2023-04-15T09:55:45;11.90;99.90
11666;DHT22;5889;51.350;6.708;2023-04-15T09:58:19;12.10;99.90
11666;DHT22;5889;51.350;6.708;2023-04-15T10:00:47;12.40;99.90
11666;DHT22;5889;51.350;6.708;2023-04-15T10:03:19;12.70;99.90
11666;DHT22;5889;51.350;6.708;2023-04-15T10:05:48;13.00;99.90
11666;DHT22;5889;51.350;6.708;2023-04-15T10:08:17;13.10;99.90
11666;DHT22;5889;51.350;6.708;2023-04-15T10:10:46;13.00;99.90
11666;DHT22;5889;51.350;6.708;2023-04-15T10:13:15;12.90;99.90
11666;DHT22;5889;51.350;6.708;2023-04-15T10:15:44;12.90;99.90
11666;DHT22;5889;51.350;6.708;2023-04-15T10:18:17;12.80;99.90
11666;DHT22;5889;51.350;6.708;2023-04-15T10:20:45;12.80;99.90
11666;DHT22;5889;51.350;6.708;2023-04-15T10:23:14;13.00;99.90
11666;DHT22;5889;51.350;6.708;2023-04-15T10:25:41;13.00;99.90
11666;DHT22;5889;51.350;6.708;2023-04-15T10:28:08;13.20;99.90
11666;DHT22;5889;51.350;6.708;2023-04-15T10:30:36;13.20;99.90
11666;DHT22;5889;51.350;6.708;2023-04-15T10:33:04;12.90;99.90
11666;DHT22;5889;51.350;6.708;2023-04-15T10:35:33;12.70;99.90
11666;DHT22;5889;51.350;6.708;2023-04-15T10:38:00;12.80;99.90
11666;DHT22;5889;51.350;6.708;2023-04-15T10:40:28;13.00;99.90
11666;DHT22;5889;51.350;6.708;2023-04-15T10:42:58;13.10;99.90
11666;DHT22;5889;51.350;6.708;2023-04-15T10:45:26;13.00;99.90
11666;DHT22;5889;51.350;6.708;2023-04-15T10:47:56;12.70;99.90
11666;DHT22;5889;51.350;6.708;2023-04-15T10:50:25;12.40;99.90
11666;DHT22;5889;51.350;6.708;2023-04-15T10:52:54;12.10;99.90
11666;DHT22;5889;51.350;6.708;2023-04-15T10:55:23;11.90;99.90
11666;DHT22;5889;51.350;6.708;2023-04-15T10:57:51;11.80;99.90
11666;DHT22;5889;51.350;6.708;2023-04-15T11:00:23;11.80;99.90
11666;DHT22;5889;51.350;6.708;2023-04-15T11:02:52;12.00;99.90
11666;DHT22;5889;51.350;6.708;2023-04-15T11:05:47;12.00;99.90
11666;DHT22;5889;51.350;6.708;2023-04-15T11:08:14;12.00;99.90
11666;DHT22;5889;51.350;6.708;2023-04-15T11:10:51;12.00;99.90
11666;DHT22;5889;51.350;6.708;2023-04-15T11:13:21;11.80;99.90
11666;DHT22;5889;51.350;6.708;2023-04-15T11:15:55;11.70;99.90
11666;DHT22;5889;51.350;6.708;2023-04-15T11:18:25;11.80;99.90
11666;DHT22;5889;51.350;6.708;2023-04-15T11:20:54;11.80;99.90
11666;DHT22;5889;51.350;6.708;2023-04-15T11:23:32;11.80;99.90
11666;DHT22;5889;51.350;6.708;2023-04-15T11:25:59;11.80;99.90
11666;DHT22;5889;51.350;6.708;2023-04-15T11:28:27;11.90;99.90
11666;DHT22;5889;51.350;6.708;2023-04-15T11:30:55;11.80;99.90
11666;DHT22;5889;51.350;6.708;2023-04-15T11:33:22;11.90;99.90
11666;DHT22;5889;51.350;6.708;2023-04-15T11:35:50;11.90;99.90
11666;DHT22;5889;51.350;6.708;2023-04-15T11:38:18;11.70;99.90
11666;DHT22;5889;51.350;6.708;2023-04-15T11:40:47;11.40;99.90
11666;DHT22;5889;51.350;6.708;2023-04-15T11:43:19;11.40;99.90
11666;DHT22;5889;51.350;6.708;2023-04-15T11:45:51;11.40;99.90
11666;DHT22;5889;51.350;6.708;2023-04-15T11:48:19;11.30;99.90
11666;DHT22;5889;51.350;6.708;2023-04-15T11:50:51;11.30;99.90
11666;DHT22;5889;51.350;6.708;2023-04-15T11:53:18;11.40;99.90
11666;DHT22;5889;51.350;6.708;2023-04-15T11:55:48;11.40;99.90
11666;DHT22;5889;51.350;6.708;2023-04-15T11:58:17;11.30;99.90
11666;DHT22;5889;51.350;6.708;2023-04-15T12:00:49;11.20;99.90
11666;DHT22;5889;51.350;6.708;2023-04-15T12:03:19;11.30;99.90
11666;DHT22;5889;51.350;6.708;2023-04-15T12:06:03;11.20;99.90
11666;DHT22;5889;51.350;6.708;2023-04-15T12:08:58;11.20;99.90
11666;DHT22;5889;51.350;6.708;2023-04-15T12:11:32;11.20;99.90
11666;DHT22;5889;51.350;6.708;2023-04-15T12:14:03;11.40;99.90
11666;DHT22;5889;51.350;6.708;2023-04-15T12:16:32;11.40;99.90
11666;DHT22;5889;51.350;6.708;2023-04-15T12:19:00;11.40;99.90
11666;DHT22;5889;51.350;6.708;2023-04-15T12:21:33;11.20;99.90
11666;DHT22;5889;51.350;6.708;2023-04-15T12:24:02;11.00;99.90
11666;DHT22;5889;51.350;6.708;2023-04-15T12:26:32;11.00;99.90
11666;DHT22;5889;51.350;6.708;2023-04-15T12:29:00;11.20;99.90
11666;DHT22;5889;51.350;6.708;2023-04-15T12:31:27;11.10;99.90
11666;DHT22;5889;51.350;6.708;2023-04-15T12:33:55;11.10;99.90
11666;DHT22;5889;51.350;6.708;2023-04-15T12:36:22;11.10;99.90
11666;DHT22;5889;51.350;6.708;2023-04-15T12:38:49;11.10;99.90
11666;DHT22;5889;51.350;6.708;2023-04-15T12:41:16;11.00;99.90
11666;DHT22;5889;51.350;6.708;2023-04-15T12:43:45;11.10;99.90
11666;DHT22;5889;51.350;6.708;2023-04-15T12:46:12;11.20;99.90
11666;DHT22;5889;51.350;6.708;2023-04-15T12:48:40;11.30;99.90
11666;DHT22;5889;51.350;6.708;2023-04-15T12:51:07;11.30;99.90
11666;DHT22;5889;51.350;6.708;2023-04-15T12:53:34;11.20;99.90
11666;DHT22;5889;51.350;6.708;2023-04-15T12:56:01;11.30;99.90
11666;DHT22;5889;51.350;6.708;2023-04-15T12:58:28;11.30;99.90
11666;DHT22;5889;51.350;6.708;2023-04-15T13:00:57;11.30;99.90
11666;DHT22;5889;51.350;6.708;2023-04-15T13:03:24;11.30;99.90
11666;DHT22;5889;51.350;6.708;2023-04-15T13:05:51;11.30;99.90
11666;DHT22;5889;51.350;6.708;2023-04-15T13:08:18;11.40;99.90
11666;DHT22;5889;51.350;6.708;2023-04-15T13:10:45;11.40;99.90
11666;DHT22;5889;51.350;6.708;2023-04-15T13:13:12;11.40;99.90
11666;DHT22;5889;51.350;6.708;2023-04-15T13:15:39;11.20;99.90
11666;DHT22;5889;51.350;6.708;2023-04-15T13:18:07;11.00;99.90
11666;DHT22;5889;51.350;6.708;2023-04-15T13:20:34;11.00;99.90
11666;DHT22;5889;51.350;6.708;2023-04-15T13:23:01;10.90;99.90
11666;DHT22;5889;51.350;6.708;2023-04-15T13:25:28;10.90;99.90
11666;DHT22;5889;51.350;6.708;2023-04-15T13:27:55;10.90;99.90
11666;DHT22;5889;51.350;6.708;2023-04-15T13:30:22;10.90;99.90
11666;DHT22;5889;51.350;6.708;2023-04-15T13:32:49;10.90;99.90
11666;DHT22;5889;51.350;6.708;2023-04-15T13:35:18;10.90;99.90
11666;DHT22;5889;51.350;6.708;2023-04-15T13:37:45;11.00;99.90
11666;DHT22;5889;51.350;6.708;2023-04-15T13:40:12;11.10;99.90
11666;DHT22;5889;51.350;6.708;2023-04-15T13:42:40;11.10;99.90
11666;DHT22;5889;51.350;6.708;2023-04-15T13:45:08;11.10;99.90
11666;DHT22;5889;51.350;6.708;2023-04-15T13:47:35;11.00;99.90
11666;DHT22;5889;51.350;6.708;2023-04-15T13:50:03;10.90;99.90
11666;DHT22;5889;51.350;6.708;2023-04-15T13:52:31;11.00;99.90
11666;DHT22;5889;51.350;6.708;2023-04-15T13:54:58;11.10;99.90
11666;DHT22;5889;51.350;6.708;2023-04-15T13:57:25;11.10;99.90
11666;DHT22;5889;51.350;6.708;2023-04-15T13:59:52;11.10;99.90
11666;DHT22;5889;51.350;6.708;2023-04-15T14:02:20;11.20;99.90
11666;DHT22;5889;51.350;6.708;2023-04-15T14:04:48;11.10;99.90
11666;DHT22;5889;51.350;6.708;2023-04-15T14:07:15;11.10;99.90
11666;DHT22;5889;51.350;6.708;2023-04-15T14:09:44;11.20;99.90
11666;DHT22;5889;51.350;6.708;2023-04-15T14:12:11;11.20;99.90
11666;DHT22;5889;51.350;6.708;2023-04-15T14:14:38;11.20;99.90
11666;DHT22;5889;51.350;6.708;2023-04-15T14:17:25;11.20;99.90
11666;DHT22;5889;51.350;6.708;2023-04-15T14:19:53;11.20;99.90
11666;DHT22;5889;51.350;6.708;2023-04-15T14:22:20;11.20;99.90
11666;DHT22;5889;51.350;6.708;2023-04-15T14:24:48;11.20;99.90
11666;DHT22;5889;51.350;6.708;2023-04-15T14:27:17;11.10;99.90
11666;DHT22;5889;51.350;6.708;2023-04-15T14:29:44;11.10;99.90
11666;DHT22;5889;51.350;6.708;2023-04-15T14:32:11;11.10;99.90
11666;DHT22;5889;51.350;6.708;2023-04-15T14:34:38;11.20;99.90
11666;DHT22;5889;51.350;6.708;2023-04-15T14:37:05;11.20;99.90
11666;DHT22;5889;51.350;6.708;2023-04-15T14:39:32;11.20;99.90
11666;DHT22;5889;51.350;6.708;2023-04-15T14:42:00;11.20;99.90
11666;DHT22;5889;51.350;6.708;2023-04-15T14:44:27;11.20;99.90
11666;DHT22;5889;51.350;6.708;2023-04-15T14:46:55;11.30;99.90
11666;DHT22;5889;51.350;6.708;2023-04-15T14:49:22;11.40;99.90
11666;DHT22;5889;51.350;6.708;2023-04-15T14:51:49;11.20;99.90
11666;DHT22;5889;51.350;6.708;2023-04-15T14:54:16;11.10;99.90
11666;DHT22;5889;51.350;6.708;2023-04-15T14:56:43;11.00;99.90
11666;DHT22;5889;51.350;6.708;2023-04-15T14:59:11;10.90;99.90
11666;DHT22;5889;51.350;6.708;2023-04-15T15:01:38;10.80;99.90
11666;DHT22;5889;51.350;6.708;2023-04-15T15:04:05;10.80;99.90
11666;DHT22;5889;51.350;6.708;2023-04-15T15:06:33;10.80;99.90
11666;DHT22;5889;51.350;6.708;2023-04-15T15:09:00;10.70;99.90
11666;DHT22;5889;51.350;6.708;2023-04-15T15:11:27;10.70;99.90
11666;DHT22;5889;51.350;6.708;2023-04-15T15:13:55;10.80;99.90
11666;DHT22;5889;51.350;6.708;2023-04-15T15:16:24;10.80;99.90
11666;DHT22;5889;51.350;6.708;2023-04-15T15:18:51;10.80;99.90
11666;DHT22;5889;51.350;6.708;2023-04-15T15:21:18;10.80;99.90
11666;DHT22;5889;51.350;6.708;2023-04-15T15:23:45;10.80;99.90
11666;DHT22;5889;51.350;6.708;2023-04-15T15:26:13;10.70;99.90
11666;DHT22;5889;51.350;6.708;2023-04-15T15:28:40;10.60;99.90
11666;DHT22;5889;51.350;6.708;2023-04-15T15:54:30;10.40;99.90
11666;DHT22;5889;51.350;6.708;2023-04-15T15:56:56;10.40;99.90
11666;DHT22;5889;51.350;6.708;2023-04-15T15:59:24;10.40;99.90
11666;DHT22;5889;51.350;6.708;2023-04-15T16:01:51;10.40;99.90
11666;DHT22;5889;51.350;6.708;2023-04-15T16:04:18;10.40;99.90
11666;DHT22;5889;51.350;6.708;2023-04-15T16:06:45;10.30;99.90
11666;DHT22;5889;51.350;6.708;2023-04-15T16:09:12;10.30;99.90
11666;DHT22;5889;51.350;6.708;2023-04-15T16:11:40;10.20;99.90
11666;DHT22;5889;51.350;6.708;2023-04-15T16:14:07;10.20;99.90
11666;DHT22;5889;51.350;6.708;2023-04-15T16:16:35;10.10;99.90
11666;DHT22;5889;51.350;6.708;2023-04-15T16:19:02;10.10;99.90
11666;DHT22;5889;51.350;6.708;2023-04-15T16:21:29;10.00;99.90
11666;DHT22;5889;51.350;6.708;2023-04-15T16:23:56;10.00;99.90
11666;DHT22;5889;51.350;6.708;2023-04-15T16:26:23;10.00;99.90
11666;DHT22;5889;51.350;6.708;2023-04-15T16:28:51;10.00;99.90
11666;DHT22;5889;51.350;6.708;2023-04-15T16:31:18;10.00;99.90
11666;DHT22;5889;51.350;6.708;2023-04-15T16:33:45;10.00;99.90
11666;DHT22;5889;51.350;6.708;2023-04-15T16:36:12;9.90;99.90
11666;DHT22;5889;51.350;6.708;2023-04-15T16:38:39;9.90;99.90
11666;DHT22;5889;51.350;6.708;2023-04-15T16:41:06;9.90;99.90
11666;DHT22;5889;51.350;6.708;2023-04-15T16:43:33;9.90;99.90
11666;DHT22;5889;51.350;6.708;2023-04-15T16:46:01;9.80;99.90
11666;DHT22;5889;51.350;6.708;2023-04-15T16:48:28;9.70;99.90
11666;DHT22;5889;51.350;6.708;2023-04-15T16:50:56;9.70;99.90
11666;DHT22;5889;51.350;6.708;2023-04-15T16:53:23;9.60;99.90
11666;DHT22;5889;51.350;6.708;2023-04-15T16:55:50;9.60;99.90
11666;DHT22;5889;51.350;6.708;2023-04-15T16:58:17;9.70;99.90
11666;DHT22;5889;51.350;6.708;2023-04-15T17:00:44;9.60;99.90
11666;DHT22;5889;51.350;6.708;2023-04-15T17:03:12;9.60;99.90
11666;DHT22;5889;51.350;6.708;2023-04-15T17:05:39;9.60;99.90
11666;DHT22;5889;51.350;6.708;2023-04-15T17:08:06;9.60;99.90
11666;DHT22;5889;51.350;6.708;2023-04-15T17:10:35;9.50;99.90
11666;DHT22;5889;51.350;6.708;2023-04-15T17:13:02;9.60;99.90
11666;DHT22;5889;51.350;6.708;2023-04-15T17:15:29;9.50;99.90
11666;DHT22;5889;51.350;6.708;2023-04-15T17:17:55;9.50;99.90
11666;DHT22;5889;51.350;6.708;2023-04-15T17:20:24;9.40;99.90
11666;DHT22;5889;51.350;6.708;2023-04-15T17:22:52;9.40;99.90
11666;DHT22;5889;51.350;6.708;2023-04-15T17:25:19;9.40;99.90
11666;DHT22;5889;51.350;6.708;2023-04-15T17:27:46;9.30;99.90
11666;DHT22;5889;51.350;6.708;2023-04-15T17:30:13;9.20;99.90
11666;DHT22;5889;51.350;6.708;2023-04-15T17:32:41;9.20;99.90
11666;DHT22;5889;51.350;6.708;2023-04-15T17:35:09;9.20;99.90
11666;DHT22;5889;51.350;6.708;2023-04-15T17:37:37;9.20;99.90
11666;DHT22;5889;51.350;6.708;2023-04-15T17:40:05;9.20;99.90
11666;DHT22;5889;51.350;6.708;2023-04-15T17:42:32;9.20;99.90
11666;DHT22;5889;51.350;6.708;2023-04-15T17:44:59;9.20;99.90
11666;DHT22;5889;51.350;6.708;2023-04-15T17:47:26;9.20;99.90
11666;DHT22;5889;51.350;6.708;2023-04-15T17:49:53;9.20;99.90
11666;DHT22;5889;51.350;6.708;2023-04-15T17:52:22;9.10;99.90
11666;DHT22;5889;51.350;6.708;2023-04-15T17:54:50;9.10;99.90
11666;DHT22;5889;51.350;6.708;2023-04-15T17:57:17;9.10;99.90
11666;DHT22;5889;51.350;6.708;2023-04-15T17:59:44;9.10;99.90
11666;DHT22;5889;51.350;6.708;2023-04-15T18:02:12;9.00;99.90
11666;DHT22;5889;51.350;6.708;2023-04-15T18:04:39;9.00;99.90
11666;DHT22;5889;51.350;6.708;2023-04-15T18:07:06;9.00;99.90
11666;DHT22;5889;51.350;6.708;2023-04-15T18:09:33;8.90;99.90
11666;DHT22;5889;51.350;6.708;2023-04-15T18:12:02;8.90;99.90